createdAt,value
2018-12-29T00:00:34.853Z,15.67
2018-12-29T00:03:16.298Z,14.30
2018-12-29T00:05:57.215Z,16.37
2018-12-29T00:08:37.858Z,16.60
2018-12-29T00:11:18.532Z,17.00
2018-12-29T00:13:59.003Z,17.67
2018-12-29T00:16:40.063Z,18.20
2018-12-29T00:19:20.349Z,16.47
2018-12-29T00:22:01.112Z,16.57
2018-12-29T00:24:41.729Z,16.20
2018-12-29T00:27:22.690Z,14.83
2018-12-29T00:30:03.519Z,14.37
2018-12-29T00:32:44.272Z,13.93
2018-12-29T00:35:25.282Z,14.80
2018-12-29T00:38:06.535Z,14.47
2018-12-29T00:40:47.719Z,14.90
2018-12-29T00:43:28.812Z,13.73
2018-12-29T00:46:09.196Z,14.73
2018-12-29T00:48:49.939Z,14.67
2018-12-29T00:51:30.706Z,14.73
2018-12-29T00:54:11.454Z,14.10
2018-12-29T00:56:52.119Z,13.97
2018-12-29T00:59:32.694Z,15.33
2018-12-29T01:02:13.523Z,15.70
2018-12-29T01:04:54.396Z,13.50
2018-12-29T01:07:34.965Z,13.30
2018-12-29T01:10:15.987Z,13.23
2018-12-29T01:12:56.544Z,12.23
2018-12-29T01:15:36.916Z,12.40
2018-12-29T01:18:17.486Z,12.40
2018-12-29T01:20:58.134Z,13.47
2018-12-29T01:23:38.976Z,12.23
2018-12-29T01:26:19.431Z,12.40
2018-12-29T01:28:59.904Z,12.70
2018-12-29T01:31:40.336Z,13.23
2018-12-29T01:34:21.573Z,12.50
2018-12-29T01:37:02.270Z,11.50
2018-12-29T01:39:42.919Z,11.77
2018-12-29T01:42:23.401Z,12.90
2018-12-29T01:45:03.947Z,12.40
2018-12-29T01:47:44.562Z,11.73
2018-12-29T01:50:25.075Z,11.43
2018-12-29T01:53:06.049Z,10.73
2018-12-29T01:55:46.514Z,10.90
2018-12-29T01:58:27.225Z,10.30
2018-12-29T02:01:07.867Z,9.53
2018-12-29T02:03:48.447Z,9.33
2018-12-29T02:06:29.132Z,10.60
2018-12-29T02:09:09.899Z,9.60
2018-12-29T02:11:50.614Z,8.57
2018-12-29T02:14:31.003Z,9.40
2018-12-29T02:17:11.980Z,10.40
2018-12-29T02:19:52.260Z,8.93
2018-12-29T02:22:32.965Z,9.80
2018-12-29T02:25:13.882Z,11.27
2018-12-29T02:27:54.782Z,11.00
2018-12-29T02:30:35.139Z,11.13
2018-12-29T02:33:15.926Z,9.87
2018-12-29T02:35:56.962Z,9.30
2018-12-29T02:38:37.343Z,10.80
2018-12-29T02:41:17.820Z,10.90
2018-12-29T02:43:58.434Z,11.33
2018-12-29T02:46:39.383Z,9.63
2018-12-29T02:49:20.354Z,11.00
2018-12-29T02:52:01.551Z,11.00
2018-12-29T02:54:42.047Z,11.20
2018-12-29T02:57:22.734Z,11.80
2018-12-29T03:00:03.054Z,11.13
2018-12-29T03:02:43.624Z,10.93
2018-12-29T03:05:23.991Z,12.40
2018-12-29T03:08:04.723Z,11.63
2018-12-29T03:10:45.142Z,12.37
2018-12-29T03:13:25.819Z,14.17
2018-12-29T03:16:06.295Z,13.53
2018-12-29T03:18:46.766Z,13.43
2018-12-29T03:21:27.140Z,14.47
2018-12-29T03:24:07.519Z,13.10
2018-12-29T03:26:48.303Z,15.70
2018-12-29T03:29:28.829Z,13.03
2018-12-29T03:32:09.563Z,13.40
2018-12-29T03:34:50.240Z,14.13
2018-12-29T03:37:31.119Z,12.57
2018-12-29T03:40:11.527Z,13.37
2018-12-29T03:42:52.206Z,13.63
2018-12-29T03:45:32.799Z,13.53
2018-12-29T03:48:13.152Z,13.33
2018-12-29T03:50:53.814Z,13.40
2018-12-29T03:53:34.598Z,12.53
2018-12-29T03:56:15.219Z,13.10
2018-12-29T03:58:56.138Z,13.80
2018-12-29T04:01:36.652Z,13.27
2018-12-29T04:04:17.246Z,13.37
2018-12-29T04:06:57.798Z,13.10
2018-12-29T04:09:38.496Z,13.40
2018-12-29T04:12:18.960Z,13.90
2018-12-29T04:14:59.333Z,14.30
2018-12-29T04:17:40.511Z,13.60
2018-12-29T04:20:21.386Z,14.20
2018-12-29T04:23:02.171Z,14.40
2018-12-29T04:25:42.959Z,14.33
2018-12-29T04:28:23.537Z,13.60
2018-12-29T04:31:04.346Z,13.93
2018-12-29T04:33:45.056Z,14.60
2018-12-29T04:36:25.532Z,14.83
2018-12-29T04:39:06.190Z,16.33
2018-12-29T04:41:46.676Z,16.70
2018-12-29T04:44:27.565Z,14.80
2018-12-29T04:47:08.078Z,14.33
2018-12-29T04:49:48.807Z,15.10
2018-12-29T04:52:29.757Z,15.27
2018-12-29T04:55:10.587Z,14.93
2018-12-29T04:57:50.964Z,15.67
2018-12-29T05:00:31.500Z,17.07
2018-12-29T05:03:12.011Z,14.67
2018-12-29T05:05:52.620Z,15.63
2018-12-29T05:08:33.142Z,15.07
2018-12-29T05:11:13.653Z,16.70
2018-12-29T05:13:54.003Z,14.93
2018-12-29T05:16:34.566Z,16.40
2018-12-29T05:19:15.110Z,16.93
2018-12-29T05:21:55.943Z,14.80
2018-12-29T05:24:36.294Z,15.70
2018-12-29T05:27:17.036Z,15.63
2018-12-29T05:29:57.638Z,15.10
2018-12-29T05:32:38.211Z,15.77
2018-12-29T05:35:18.826Z,15.90
2018-12-29T05:37:59.612Z,15.03
2018-12-29T05:40:28.360Z,16.70
2018-12-29T05:42:57.422Z,15.60
2018-12-29T05:45:38.747Z,14.70
2018-12-29T05:48:19.579Z,14.70
2018-12-29T05:51:00.284Z,14.10
2018-12-29T05:53:41.037Z,12.87
2018-12-29T05:56:21.675Z,13.83
2018-12-29T05:59:02.384Z,13.00
2018-12-29T06:01:43.500Z,13.10
2018-12-29T06:04:24.713Z,11.53
2018-12-29T06:07:05.859Z,13.30
2018-12-29T06:09:46.255Z,12.23
2018-12-29T06:12:26.610Z,13.50
2018-12-29T06:15:06.975Z,12.27
2018-12-29T06:17:47.596Z,12.57
2018-12-29T06:20:27.853Z,13.70
2018-12-29T06:23:08.531Z,12.53
2018-12-29T06:25:49.124Z,11.90
2018-12-29T06:28:29.967Z,11.03
2018-12-29T06:31:10.861Z,13.40
2018-12-29T06:33:51.451Z,11.97
2018-12-29T06:36:31.813Z,10.33
2018-12-29T06:39:12.342Z,11.53
2018-12-29T06:41:52.752Z,11.43
2018-12-29T06:44:33.184Z,11.77
2018-12-29T06:47:13.604Z,10.87
2018-12-29T06:49:54.107Z,10.90
2018-12-29T06:52:34.844Z,11.17
2018-12-29T06:55:15.670Z,10.67
2018-12-29T06:57:56.362Z,9.80
2018-12-29T07:00:36.920Z,11.37
2018-12-29T07:03:17.322Z,12.10
2018-12-29T07:05:58.032Z,10.90
2018-12-29T07:08:38.931Z,9.50
2018-12-29T07:11:19.285Z,9.40
2018-12-29T07:13:59.935Z,10.03
2018-12-29T07:16:42.336Z,9.23
2018-12-29T07:19:23.338Z,8.70
2018-12-29T07:22:03.996Z,11.00
2018-12-29T07:24:44.974Z,10.80
2018-12-29T07:27:25.510Z,9.67
2018-12-29T07:30:06.239Z,10.13
2018-12-29T07:32:46.544Z,11.10
2018-12-29T07:35:27.315Z,10.37
2018-12-29T07:38:08.230Z,10.90
2018-12-29T07:40:48.522Z,11.87
2018-12-29T07:43:29.251Z,10.70
2018-12-29T07:46:09.942Z,9.67
2018-12-29T07:48:50.651Z,10.90
2018-12-29T07:51:31.720Z,10.50
2018-12-29T07:54:12.402Z,10.40
2018-12-29T07:56:53.255Z,9.87
2018-12-29T07:59:34.150Z,9.70
2018-12-29T08:02:15.111Z,9.07
2018-12-29T08:04:56.149Z,9.03
2018-12-29T08:07:36.662Z,9.33
2018-12-29T08:10:17.342Z,8.50
2018-12-29T08:12:57.863Z,8.47
2018-12-29T08:15:38.806Z,7.57
2018-12-29T08:18:19.151Z,7.30
2018-12-29T08:20:59.975Z,6.53
2018-12-29T08:23:40.645Z,7.23
2018-12-29T08:26:21.290Z,7.27
2018-12-29T08:29:02.091Z,6.93
2018-12-29T08:31:42.734Z,6.53
2018-12-29T08:34:23.528Z,5.67
2018-12-29T08:37:04.082Z,5.97
2018-12-29T08:39:45.008Z,6.77
2018-12-29T08:42:25.902Z,6.43
2018-12-29T08:45:07.118Z,4.37
2018-12-29T08:47:47.912Z,5.87
2018-12-29T08:50:28.459Z,5.20
2018-12-29T08:53:09.181Z,4.70
2018-12-29T08:55:50.025Z,5.50
2018-12-29T08:58:30.720Z,5.17
2018-12-29T09:01:11.723Z,5.57
2018-12-29T09:03:52.457Z,4.70
2018-12-29T09:06:33.097Z,5.40
2018-12-29T09:09:13.787Z,5.93
2018-12-29T09:11:54.368Z,5.37
2018-12-29T09:14:35.348Z,5.10
2018-12-29T09:17:15.901Z,5.83
2018-12-29T09:19:56.727Z,6.03
2018-12-29T09:22:38.271Z,5.13
2018-12-29T09:25:18.675Z,5.47
2018-12-29T09:27:59.519Z,4.70
2018-12-29T09:30:40.012Z,5.50
2018-12-29T09:33:20.474Z,5.43
2018-12-29T09:36:01.793Z,5.20
2018-12-29T09:38:43.108Z,5.40
2018-12-29T09:41:23.433Z,6.13
2018-12-29T09:44:04.287Z,5.70
2018-12-29T09:46:45.725Z,5.80
2018-12-29T09:49:26.816Z,5.87
2018-12-29T09:52:07.524Z,5.13
2018-12-29T09:54:48.154Z,4.90
2018-12-29T09:57:28.895Z,5.30
2018-12-29T10:00:09.517Z,6.40
2018-12-29T10:02:49.971Z,4.53
2018-12-29T10:05:30.460Z,4.80
2018-12-29T10:08:11.027Z,4.40
2018-12-29T10:10:51.815Z,4.47
2018-12-29T10:13:32.689Z,4.00
2018-12-29T10:16:13.889Z,4.40
2018-12-29T10:18:54.484Z,4.27
2018-12-29T10:21:35.411Z,4.40
2018-12-29T10:24:16.620Z,3.83
2018-12-29T10:26:57.495Z,4.77
2018-12-29T10:29:38.195Z,3.60
2018-12-29T10:32:18.860Z,3.60
2018-12-29T10:34:59.284Z,3.80
2018-12-29T10:37:39.963Z,3.83
2018-12-29T10:40:20.621Z,4.33
2018-12-29T10:43:01.423Z,4.10
2018-12-29T10:45:30.222Z,4.40
2018-12-29T10:48:18.261Z,4.93
2018-12-29T10:51:06.250Z,5.90
2018-12-29T10:53:54.241Z,5.50
2018-12-29T10:56:42.227Z,5.50
2018-12-29T10:59:30.476Z,5.60
2018-12-29T11:02:20.183Z,5.90
2018-12-29T11:05:08.411Z,6.70
2018-12-29T11:07:56.463Z,5.20
2018-12-29T11:10:44.477Z,4.60
2018-12-29T11:13:32.451Z,5.10
2018-12-29T11:16:41.552Z,5.50
2018-12-29T11:19:29.546Z,5.53
2018-12-29T11:22:17.531Z,4.17
2018-12-29T11:25:05.528Z,4.50
2018-12-29T11:27:53.529Z,4.60
2018-12-29T11:30:41.772Z,4.70
2018-12-29T11:33:30.040Z,4.67
2018-12-29T11:36:18.039Z,4.37
2018-12-29T11:39:06.559Z,5.20
2018-12-29T11:45:01.655Z,5.40
2018-12-29T11:47:49.623Z,5.63
2018-12-29T11:50:25.311Z,5.80
2018-12-29T11:53:06.140Z,5.17
2018-12-29T11:55:46.859Z,6.77
2018-12-29T11:58:27.367Z,7.07
2018-12-29T12:01:08.087Z,5.20
2018-12-29T12:03:48.815Z,6.10
2018-12-29T12:06:29.775Z,5.47
2018-12-29T12:09:10.963Z,6.57
2018-12-29T12:11:51.850Z,6.60
2018-12-29T12:14:32.528Z,6.00
2018-12-29T12:17:13.204Z,7.33
2018-12-29T12:19:54.893Z,8.10
2018-12-29T12:22:36.395Z,7.90
2018-12-29T12:25:17.428Z,7.47
2018-12-29T12:27:58.403Z,8.17
2018-12-29T12:30:38.977Z,8.87
2018-12-29T12:33:19.810Z,8.53
2018-12-29T12:36:00.376Z,7.70
2018-12-29T12:38:41.910Z,5.77
2018-12-29T12:41:23.290Z,6.40
2018-12-29T12:44:04.896Z,5.80
2018-12-29T12:46:45.701Z,8.07
2018-12-29T12:52:46.628Z,6.43
2018-12-29T12:55:27.062Z,6.67
2018-12-29T12:58:08.067Z,7.70
2018-12-29T13:00:49.183Z,7.90
2018-12-29T13:03:30.521Z,7.47
2018-12-29T13:06:12.975Z,6.40
2018-12-29T13:08:54.037Z,7.67
2018-12-29T13:11:34.772Z,7.53
2018-12-29T13:14:15.623Z,7.93
2018-12-29T13:16:44.680Z,7.20
2018-12-29T13:19:32.663Z,7.63
2018-12-29T13:22:20.727Z,7.57
2018-12-29T13:25:08.727Z,7.60
2018-12-29T13:27:57.049Z,7.97
2018-12-29T13:30:45.051Z,9.00
2018-12-29T13:33:33.544Z,7.90
2018-12-29T13:36:21.611Z,7.80
2018-12-29T13:39:09.944Z,8.43
2018-12-29T13:41:58.296Z,8.80
2018-12-29T13:44:46.518Z,8.97
2018-12-29T13:47:27.084Z,10.23
2018-12-29T13:50:07.960Z,9.60
2018-12-29T13:52:48.652Z,8.80
2018-12-29T13:55:29.659Z,9.43
2018-12-29T13:58:10.253Z,8.40
2018-12-29T14:00:50.936Z,9.80
2018-12-29T14:03:32.143Z,10.83
2018-12-29T14:06:12.733Z,10.97
2018-12-29T14:08:53.699Z,11.20
2018-12-29T14:11:34.671Z,11.80
2018-12-29T14:14:15.911Z,11.43
2018-12-29T14:16:56.697Z,11.67
2018-12-29T14:19:37.256Z,11.63
2018-12-29T14:22:18.095Z,10.90
2018-12-29T14:24:58.719Z,11.27
2018-12-29T14:27:39.671Z,10.63
2018-12-29T14:30:20.538Z,11.90
2018-12-29T14:33:01.336Z,11.60
2018-12-29T14:35:42.154Z,11.50
2018-12-29T14:38:22.941Z,11.30
2018-12-29T14:41:03.891Z,11.57
2018-12-29T14:43:45.087Z,10.27
2018-12-29T14:46:25.387Z,9.90
2018-12-29T14:49:06.187Z,9.83
2018-12-29T14:51:46.739Z,9.80
2018-12-29T14:54:27.440Z,9.10
2018-12-29T14:57:07.998Z,9.60
2018-12-29T14:59:48.728Z,8.80
2018-12-29T15:02:29.520Z,8.90
2018-12-29T15:05:11.103Z,9.07
2018-12-29T15:07:51.647Z,8.60
2018-12-29T15:10:32.394Z,8.30
2018-12-29T15:13:12.960Z,8.67
2018-12-29T15:15:54.585Z,7.37
2018-12-29T15:18:43.329Z,6.73
2018-12-29T15:21:18.435Z,7.70
2018-12-29T15:23:59.515Z,6.37
2018-12-29T15:26:40.444Z,8.53
2018-12-29T15:29:21.792Z,5.90
2018-12-29T15:32:02.290Z,6.10
2018-12-29T15:34:42.963Z,5.87
2018-12-29T15:37:23.915Z,6.30
2018-12-29T15:40:04.431Z,7.50
2018-12-29T15:42:45.257Z,7.30
2018-12-29T15:45:25.626Z,6.70
2018-12-29T15:48:06.683Z,6.90
2018-12-29T15:50:47.364Z,6.67
2018-12-29T15:53:27.754Z,6.60
2018-12-29T15:56:08.224Z,8.93
2018-12-29T15:58:48.606Z,6.80
2018-12-29T16:01:29.244Z,7.83
2018-12-29T16:04:09.838Z,7.13
2018-12-29T16:06:51.119Z,7.80
2018-12-29T16:09:32.106Z,8.30
2018-12-29T16:12:13.426Z,8.03
2018-12-29T16:14:53.876Z,8.10
2018-12-29T16:17:34.805Z,7.50
2018-12-29T16:20:15.753Z,6.73
2018-12-29T16:22:57.234Z,5.90
2018-12-29T16:25:37.977Z,8.87
2018-12-29T16:28:18.602Z,6.77
2018-12-29T16:30:59.164Z,6.77
2018-12-29T16:33:41.673Z,7.60
2018-12-29T16:36:23.088Z,6.97
2018-12-29T16:39:03.999Z,8.33
2018-12-29T16:41:45.046Z,7.37
2018-12-29T16:44:25.883Z,7.60
2018-12-29T16:47:07.228Z,8.83
2018-12-29T16:49:50.390Z,8.53
2018-12-29T16:52:31.100Z,8.57
2018-12-29T16:55:12.259Z,7.77
2018-12-29T16:57:52.633Z,8.17
2018-12-29T17:00:33.055Z,7.70
2018-12-29T17:03:13.687Z,6.80
2018-12-29T17:05:54.315Z,7.00
2018-12-29T17:08:35.064Z,5.67
2018-12-29T17:11:15.823Z,5.10
2018-12-29T17:13:57.619Z,5.17
2018-12-29T17:16:38.389Z,4.37
2018-12-29T17:19:20.837Z,4.60
2018-12-29T17:22:01.378Z,3.20
2018-12-29T17:24:42.219Z,3.30
2018-12-29T17:27:22.856Z,3.27
2018-12-29T17:30:04.508Z,2.77
2018-12-29T17:32:45.684Z,2.23
2018-12-29T17:35:26.077Z,4.70
2018-12-29T17:38:06.671Z,2.40
2018-12-29T17:40:47.588Z,2.30
2018-12-29T17:43:27.979Z,2.30
2018-12-29T17:46:08.607Z,1.60
2018-12-29T17:48:49.332Z,1.70
2018-12-29T17:51:30.149Z,1.73
2018-12-29T17:54:10.815Z,1.90
2018-12-29T17:56:51.551Z,1.80
2018-12-29T17:59:32.367Z,2.10
2018-12-29T18:02:13.155Z,1.90
2018-12-29T18:04:53.869Z,1.87
2018-12-29T18:07:33.309Z,2.30
2018-12-29T18:10:21.626Z,2.00
2018-12-29T18:16:18.703Z,1.90
2018-12-29T18:19:06.763Z,2.40
2018-12-29T18:21:54.881Z,1.70
2018-12-29T18:24:44.756Z,2.07
2018-12-29T18:27:32.726Z,2.30
2018-12-29T18:30:20.799Z,2.17
2018-12-29T18:33:08.862Z,1.90
2018-12-29T18:35:57.154Z,2.07
2018-12-29T18:38:45.125Z,1.80
2018-12-29T18:41:33.527Z,2.00
2018-12-29T18:44:21.501Z,2.30
2018-12-29T18:47:04.705Z,2.20
2018-12-29T18:49:45.849Z,2.27
2018-12-29T18:52:26.501Z,2.13
2018-12-29T18:55:07.191Z,1.77
2018-12-29T18:57:47.906Z,2.20
2018-12-29T19:00:28.421Z,1.67
2018-12-29T19:03:09.471Z,2.00
2018-12-29T19:05:50.387Z,1.57
2018-12-29T19:08:31.434Z,1.67
2018-12-29T19:11:12.367Z,2.17
2018-12-29T19:13:53.126Z,2.10
2018-12-29T19:16:34.060Z,2.10
2018-12-29T19:19:14.716Z,2.80
2018-12-29T19:21:56.032Z,2.00
2018-12-29T19:24:36.820Z,2.33
2018-12-29T19:27:17.539Z,2.53
2018-12-29T19:29:58.943Z,2.10
2018-12-29T19:32:45.727Z,2.43
2018-12-29T19:35:26.925Z,2.73
2018-12-29T19:38:07.626Z,2.13
2018-12-29T19:40:49.094Z,2.50
2018-12-29T19:43:31.854Z,2.47
2018-12-29T19:46:12.607Z,2.80
2018-12-29T19:48:53.316Z,2.40
2018-12-29T19:51:33.865Z,2.43
2018-12-29T19:54:14.682Z,3.20
2018-12-29T19:56:55.311Z,2.20
2018-12-29T19:59:36.899Z,3.00
2018-12-29T20:02:17.280Z,2.07
2018-12-29T20:04:58.010Z,2.77
2018-12-29T20:07:39.553Z,2.10
2018-12-29T20:10:20.767Z,2.00
2018-12-29T20:13:01.114Z,2.97
2018-12-29T20:15:41.544Z,2.50
2018-12-29T20:18:21.979Z,2.47
2018-12-29T20:21:02.663Z,2.80
2018-12-29T20:23:43.156Z,2.37
2018-12-29T20:26:24.012Z,2.50
2018-12-29T20:29:05.523Z,3.00
2018-12-29T20:31:45.898Z,4.40
2018-12-29T20:34:26.617Z,4.53
2018-12-29T20:37:07.062Z,4.50
2018-12-29T20:39:47.789Z,4.83
2018-12-29T20:42:28.486Z,4.70
2018-12-29T20:45:09.165Z,4.67
2018-12-29T20:47:49.538Z,5.70
2018-12-29T20:50:30.006Z,5.77
2018-12-29T20:53:10.686Z,5.83
2018-12-29T20:55:51.234Z,5.67
2018-12-29T20:58:31.949Z,7.70
2018-12-29T21:01:12.818Z,7.20
2018-12-29T21:03:42.202Z,7.47
2018-12-29T21:06:30.318Z,8.07
2018-12-29T21:09:18.268Z,7.07
2018-12-29T21:12:06.234Z,6.80
2018-12-29T21:14:54.191Z,6.37
2018-12-29T21:17:42.160Z,5.90
2018-12-29T21:20:30.129Z,7.10
2018-12-29T21:23:18.102Z,5.70
2018-12-29T21:26:06.090Z,6.90
2018-12-29T21:32:01.176Z,7.37
2018-12-29T21:37:56.266Z,7.70
2018-12-29T21:40:45.950Z,8.67
2018-12-29T21:46:20.982Z,8.70
2018-12-29T21:49:01.326Z,9.07
2018-12-29T21:51:41.998Z,7.07
2018-12-29T21:54:22.893Z,6.90
2018-12-29T21:57:03.341Z,8.07
2018-12-29T21:59:44.254Z,8.77
2018-12-29T22:02:25.110Z,8.27
2018-12-29T22:05:06.222Z,7.10
2018-12-29T22:07:47.175Z,9.40
2018-12-29T22:10:27.861Z,9.20
2018-12-29T22:13:08.762Z,7.50
2018-12-29T22:15:49.525Z,8.33
2018-12-29T22:18:30.474Z,8.97
2018-12-29T22:21:11.325Z,6.17
2018-12-29T22:23:51.977Z,4.70
2018-12-29T22:26:32.502Z,2.83
2018-12-29T22:29:13.140Z,2.10
2018-12-29T22:31:53.861Z,2.00
2018-12-29T22:34:34.454Z,1.87
2018-12-29T22:37:15.019Z,1.23
2018-12-29T22:39:55.694Z,1.60
2018-12-29T22:42:24.762Z,1.50
2018-12-29T22:45:12.816Z,1.40
2018-12-29T22:48:00.797Z,1.40
2018-12-29T22:50:48.826Z,1.20
2018-12-29T22:53:36.803Z,1.80
2018-12-29T22:56:24.795Z,1.50
2018-12-29T23:02:06.643Z,1.10
2018-12-29T23:04:54.635Z,1.23
2018-12-29T23:07:44.314Z,1.70
2018-12-29T23:10:32.355Z,1.23
2018-12-29T23:13:22.038Z,1.30
2018-12-29T23:19:17.418Z,1.10
2018-12-29T23:25:12.570Z,0.93
2018-12-29T23:28:02.340Z,1.10
2018-12-29T23:34:18.326Z,1.27
2018-12-29T23:37:06.387Z,1.37
2018-12-29T23:39:54.385Z,1.20
2018-12-29T23:45:51.459Z,1.20
2018-12-29T23:48:39.543Z,0.80
2018-12-29T23:51:27.902Z,1.20
2018-12-29T23:54:16.138Z,1.00
2018-12-29T23:57:05.837Z,0.80
2018-12-29T23:59:53.835Z,1.80
